Time;durP1;ratioP1;P1;durP2;ratioP2;P2;SDS_P1;SDS_P2;PMS_P1;PMS_P2;Temp;Humidity;BMP_temperature;BMP_pressure;BME280_temperature;BME280_humidity;BME280_pressure;Samples;Min_cycle;Max_cycle;Signal;HPM_P1;HPM_P2
2023/10/30 00:03:50;;;;;;;1.80;1.53;;;;;;;13.13;58.33;98952.50;10397450;28;20305;-43
2023/10/30 00:08:52;;;;;;;2.13;1.93;;;;;;;14.09;56.83;98894.56;10396569;28;20232;-42
2023/10/30 00:13:54;;;;;;;3.57;2.00;;;;;;;14.75;55.36;98871.16;10407803;28;20302;-43
2023/10/30 00:18:58;;;;;;;1.77;1.67;;;;;;;11.88;61.26;99056.69;10402189;28;20229;-43
2023/10/30 00:24:01;;;;;;;3.37;2.13;;;;;;;13.04;59.02;98938.56;10401762;28;20855;-42
2023/10/30 00:29:03;;;;;;;4.47;2.27;;;;;;;14.61;56.32;98834.75;10394881;28;20258;-42
2023/10/30 00:34:09;;;;;;;1.97;1.70;;;;;;;13.31;57.16;99013.56;10402274;28;20910;-42
2023/10/30 00:39:11;;;;;;;2.30;1.77;;;;;;;15.22;54.11;98866.78;10388487;28;21003;-42
2023/10/30 00:44:13;;;;;;;2.50;1.80;;;;;;;13.93;56.95;98901.38;10397564;28;20237;-42
2023/10/30 00:49:15;;;;;;;3.87;2.00;;;;;;;13.86;56.10;98967.88;10398581;28;20252;-43
2023/10/30 00:54:16;;;;;;;3.40;1.83;;;;;;;13.77;56.38;98974.63;10403774;28;20243;-42
2023/10/30 00:59:18;;;;;;;3.60;1.90;;;;;;;13.90;56.45;98966.38;10401691;28;20234;-42
2023/10/30 01:04:20;;;;;;;2.13;1.63;;;;;;;13.05;58.01;99018.91;10402284;28;20319;-42
2023/10/30 01:09:22;;;;;;;3.23;1.90;;;;;;;13.82;56.99;98955.94;10395134;28;20243;-41
2023/10/30 01:14:25;;;;;;;1.83;1.60;;;;;;;13.82;56.69;98964.00;10421307;28;20228;-42
2023/10/30 01:19:27;;;;;;;2.70;1.80;;;;;;;13.88;57.51;98905.81;10398592;28;20236;-42
2023/10/30 01:24:28;;;;;;;3.30;2.00;;;;;;;13.31;58.15;98954.44;10405577;28;20350;-41
2023/10/30 01:29:30;;;;;;;2.43;1.60;;;;;;;13.90;56.96;98915.25;10402198;28;20314;-42
2023/10/30 01:34:32;;;;;;;4.70;1.70;;;;;;;12.99;59.15;98946.44;10405365;28;20281;-42
2023/10/30 01:39:34;;;;;;;2.30;2.10;;;;;;;12.46;60.62;98967.28;10399285;28;20439;-42
2023/10/30 01:44:52;;;;;;;2.10;1.90;;;;;;;13.85;56.80;98942.03;10397376;28;20263;-40
2023/10/30 01:49:56;;;;;;;4.60;1.80;;;;;;;13.02;59.36;98936.09;10400498;28;20239;-41
2023/10/30 01:54:58;;;;;;;1.73;1.63;;;;;;;13.31;58.83;98898.03;10400949;28;20247;-42
2023/10/30 02:00:00;;;;;;;1.90;1.80;;;;;;;12.94;59.77;98931.03;10401134;28;20228;-42
2023/10/30 02:05:04;;;;;;;1.60;1.50;;;;;;;12.71;59.03;98971.91;10401816;28;20307;-43
2023/10/30 02:10:07;;;;;;;2.20;1.97;;;;;;;12.82;58.97;98917.50;10397199;28;20627;-42
2023/10/30 02:15:08;;;;;;;2.53;1.60;;;;;;;13.00;58.90;98851.44;10399385;28;20646;-40
2023/10/30 02:20:11;;;;;;;1.93;1.70;;;;;;;13.22;58.08;98835.69;10382214;28;20228;-42
2023/10/30 02:25:24;;;;;;;1.80;1.70;;;;;;;12.88;58.67;98894.31;10399844;28;20233;-42
2023/10/30 02:30:26;;;;;;;2.60;1.80;;;;;;;12.99;58.98;98847.09;10402273;28;20253;-41
2023/10/30 02:35:28;;;;;;;1.70;1.60;;;;;;;13.50;57.24;98816.34;10404054;28;20242;-42
2023/10/30 02:40:30;;;;;;;2.00;1.90;;;;;;;13.39;57.31;98884.28;10398601;28;20286;-42
2023/10/30 02:45:32;;;;;;;6.33;1.80;;;;;;;;;;10401698;22;20228;-66
2023/10/30 02:50:33;;;;;;;2.50;1.83;;;;;;;13.27;58.64;98803.59;10379463;28;20240;-66
2023/10/30 02:55:35;;;;;;;2.60;1.90;;;;;;;13.72;57.24;98826.59;10392162;28;20302;-66
2023/10/30 03:00:37;;;;;;;1.83;1.67;;;;;;;12.40;59.38;98895.72;10393046;28;20290;-66
2023/10/30 03:05:38;;;;;;;4.07;1.60;;;;;;;12.26;60.26;98872.72;10397127;28;20225;-66
2023/10/30 03:10:40;;;;;;;2.10;2.00;;;;;;;12.30;60.35;98804.16;10389900;28;20236;-66
2023/10/30 03:15:45;;;;;;;1.70;1.60;;;;;;;12.36;59.84;98846.22;10391094;28;20225;-66
2023/10/30 03:20:47;;;;;;;2.50;2.00;;;;;;;12.51;60.23;98797.63;10392941;28;20312;-66
2023/10/30 03:25:48;;;;;;;2.07;1.83;;;;;;;12.76;59.49;98781.47;10390117;28;20239;-66
2023/10/30 03:30:50;;;;;;;1.70;1.60;;;;;;;12.45;59.74;98834.19;10384886;28;20502;-66
2023/10/30 03:35:52;;;;;;;1.90;1.80;;;;;;;13.48;57.61;98764.72;10388863;28;20279;-65
2023/10/30 03:40:53;;;;;;;2.60;1.70;;;;;;;13.66;57.62;98745.81;10392614;28;20318;-65
2023/10/30 03:45:55;;;;;;;2.00;1.50;;;;;;;14.30;55.42;98750.59;10393757;28;20493;-66
2023/10/30 03:50:57;;;;;;;1.60;1.50;;;;;;;14.28;54.58;98811.91;10399674;28;20277;-66
2023/10/30 03:56:04;;;;;;;3.50;1.80;;;;;;;15.38;53.06;98735.84;10400992;28;20224;-65
2023/10/30 04:01:07;;;;;;;3.43;1.80;;;;;;;15.31;52.54;98798.78;10390849;28;20339;-65
2023/10/30 04:06:09;;;;;;;4.10;1.60;;;;;;;13.64;56.34;98860.81;10401302;28;20232;-66
2023/10/30 04:11:13;;;;;;;2.20;1.67;;;;;;;14.72;53.86;98823.13;10396586;28;20239;-66
2023/10/30 04:16:16;;;;;;;3.00;2.20;;;;;;;13.06;56.94;98955.28;10396757;28;20256;-66
2023/10/30 04:21:18;;;;;;;2.20;2.00;;;;;;;14.62;54.35;98798.69;10393360;28;20449;-66
2023/10/30 04:26:20;;;;;;;2.70;2.00;;;;;;;12.32;58.72;98901.34;10402177;28;20577;-66
2023/10/30 04:31:21;;;;;;;3.60;1.77;;;;;;;12.57;58.55;98812.00;10396190;28;20351;-66
2023/10/30 04:36:23;;;;;;;2.97;2.20;;;;;;;12.76;58.07;98832.47;10400451;28;20715;-66
2023/10/30 04:41:25;;;;;;;2.07;1.70;;;;;;;14.22;54.63;98807.44;10400635;28;20975;-66
2023/10/30 04:46:27;;;;;;;2.10;1.90;;;;;;;14.69;53.55;98780.53;10404173;28;20294;-67
2023/10/30 04:51:28;;;;;;;3.40;1.90;;;;;;;14.25;55.33;98737.03;10392328;28;20639;-68
2023/10/30 04:56:30;;;;;;;1.60;1.50;;;;;;;12.33;59.04;98809.09;10398468;28;20239;-66
2023/10/30 05:01:32;;;;;;;2.67;1.90;;;;;;;11.96;60.77;98742.78;10395108;28;20290;-65
2023/10/30 05:06:34;;;;;;;3.53;1.83;;;;;;;11.98;60.51;98761.34;10397408;28;20238;-66
2023/10/30 05:11:38;;;;;;;3.63;1.80;;;;;;;12.81;59.15;98693.03;10396044;28;20247;-66
2023/10/30 05:16:40;;;;;;;2.03;1.90;;;;;;;14.07;56.00;98694.09;10396970;28;20430;-65
2023/10/30 05:21:42;;;;;;;2.10;2.00;;;;;;;14.46;54.00;98796.69;10392754;28;20232;-65
2023/10/30 05:26:44;;;;;;;1.70;1.60;;;;;;;14.60;53.84;98803.47;10393965;28;20235;-65
2023/10/30 05:31:46;;;;;;;2.80;1.57;;;;;;;15.34;52.45;98784.03;10389512;28;20373;-65
2023/10/30 05:36:48;;;;;;;2.27;2.17;;;;;;;14.74;54.50;98702.53;10390255;28;20271;-65
2023/10/30 05:41:50;;;;;;;2.00;1.90;;;;;;;15.20;52.27;98813.16;10386351;28;20236;-66
2023/10/30 05:46:51;;;;;;;3.67;2.50;;;;;;;13.64;55.57;98860.81;10387791;28;20711;-65
2023/10/30 05:51:53;;;;;;;3.13;2.63;;;;;;;15.69;51.85;98748.84;10388098;28;20243;-66
2023/10/30 05:56:55;;;;;;;2.13;1.90;;;;;;;14.98;53.32;98777.09;10388683;28;20233;-65
2023/10/30 06:01:57;;;;;;;3.17;2.27;;;;;;;14.92;54.22;98708.84;10392584;28;20658;-65
2023/10/30 06:06:58;;;;;;;1.90;1.80;;;;;;;15.92;52.31;98670.72;10394331;28;20232;-65
2023/10/30 06:12:00;;;;;;;1.77;1.57;;;;;;;15.93;51.76;98710.13;10393059;28;20237;-65
2023/10/30 06:17:02;;;;;;;2.20;2.10;;;;;;;14.71;54.08;98782.97;10386973;28;20573;-66
2023/10/30 06:22:04;;;;;;;1.53;1.47;;;;;;;13.46;55.88;98837.50;10391340;28;20259;-65
2023/10/30 06:27:06;;;;;;;1.90;1.80;;;;;;;14.01;55.44;98739.66;10391246;28;20280;-65
2023/10/30 06:32:09;;;;;;;3.20;1.90;;;;;;;12.99;57.42;98793.38;10390572;28;20607;-65
2023/10/30 06:37:11;;;;;;;2.30;2.20;;;;;;;14.32;55.00;98737.72;10389729;28;20234;-65
2023/10/30 06:42:12;;;;;;;2.63;2.43;;;;;;;14.73;54.15;98682.06;10392857;28;20240;-65
2023/10/30 06:47:14;;;;;;;3.27;2.80;;;;;;;12.87;58.38;98825.53;10390505;28;20232;-66
2023/10/30 06:52:16;;;;;;;3.80;2.37;;;;;;;13.65;58.17;98693.09;10385125;28;20286;-64
2023/10/30 06:57:18;;;;;;;2.13;2.00;;;;;;;13.10;58.54;98663.72;10386998;28;20727;-65
2023/10/30 07:02:20;;;;;;;2.13;2.03;;;;;;;12.56;59.17;98725.31;10389943;28;20229;-66
2023/10/30 07:07:21;;;;;;;2.13;2.03;;;;;;;15.30;54.25;98629.25;10393829;28;20235;-65
2023/10/30 07:12:23;;;;;;;2.07;1.97;;;;;;;12.37;59.82;98757.47;10390472;28;20592;-66
2023/10/30 07:17:25;;;;;;;3.20;2.43;;;;;;;12.14;61.50;98663.41;10393472;28;20303;-66
2023/10/30 07:22:28;;;;;;;2.83;2.63;;;;;;;13.31;58.13;98666.97;10395493;28;20719;-65
2023/10/30 07:27:29;;;;;;;5.43;2.90;;;;;;;13.14;57.67;98744.66;10399376;28;20615;-65
2023/10/30 07:32:31;;;;;;;3.80;3.17;;;;;;;13.31;57.70;98774.44;10401523;28;20240;-65
2023/10/30 07:37:35;;;;;;;2.83;2.50;;;;;;;16.04;53.04;98663.31;10395833;28;20343;-66
2023/10/30 07:42:37;;;;;;;3.43;2.80;;;;;;;12.37;61.35;98802.25;10398597;28;20268;-66
2023/10/30 07:47:39;;;;;;;3.00;2.80;;;;;;;12.58;61.06;98700.94;10397905;28;20237;-65
2023/10/30 07:52:45;;;;;;;2.73;2.47;;;;;;;11.86;61.39;98789.88;10392608;28;20319;-66
2023/10/30 07:57:47;;;;;;;3.13;2.67;;;;;;;12.72;59.65;98680.94;10394042;28;20646;-65
2023/10/30 08:02:49;;;;;;;2.27;2.07;;;;;;;14.56;55.00;98654.25;10397121;28;20715;-65
2023/10/30 08:07:51;;;;;;;2.00;1.90;;;;;;;14.76;53.22;98719.31;10396966;28;20232;-66
2023/10/30 08:12:53;;;;;;;1.73;1.63;;;;;;;14.99;53.00;98682.59;10396713;28;20753;-66
2023/10/30 08:17:56;;;;;;;2.37;2.17;;;;;;;14.13;55.67;98736.22;10394929;28;20347;-66
2023/10/30 08:22:57;;;;;;;2.00;1.90;;;;;;;16.16;52.89;98620.88;10397088;28;20231;-66
2023/10/30 08:28:00;;;;;;;3.63;1.70;;;;;;;13.80;56.41;98757.19;10392203;28;20719;-65
2023/10/30 08:33:03;;;;;;;1.90;1.57;;;;;;;14.65;54.80;98732.78;10398644;28;20236;-65
2023/10/30 08:38:05;;;;;;;2.10;1.70;;;;;;;14.26;56.02;98727.91;10395065;28;20733;-66
2023/10/30 08:43:07;;;;;;;1.50;1.40;;;;;;;13.74;57.09;98707.03;10393787;28;20248;-66
2023/10/30 08:48:12;;;;;;;1.63;1.53;;;;;;;13.21;59.90;98703.25;10395933;28;20732;-66
2023/10/30 08:53:20;;;;;;;4.10;1.60;;;;;;;13.87;57.69;98697.94;10396010;28;20240;-66
2023/10/30 08:58:22;;;;;;;1.70;1.60;;;;;;;14.34;56.99;98649.53;10395265;28;20549;-66
2023/10/30 09:03:24;;;;;;;1.90;1.80;;;;;;;15.91;54.27;98605.16;10392280;28;20229;-66
2023/10/30 09:08:26;;;;;;;1.80;1.70;;;;;;;15.36;55.73;98651.72;10398364;28;20236;-66
2023/10/30 09:13:27;;;;;;;5.80;4.00;;;;;;;16.44;53.13;98632.59;10392478;28;20236;-66
2023/10/30 09:18:29;;;;;;;1.60;1.50;;;;;;;15.59;55.10;98610.31;10394383;28;20360;-65
2023/10/30 09:23:32;;;;;;;2.07;1.90;;;;;;;16.06;54.21;98593.72;10395787;28;20323;-65
2023/10/30 09:28:34;;;;;;;2.03;1.83;;;;;;;16.14;54.26;98592.50;10386705;28;20232;-65
2023/10/30 09:33:36;;;;;;;9.97;7.30;;;;;;;16.11;53.91;98599.22;10392838;28;20232;-65
2023/10/30 09:38:37;;;;;;;3.17;2.97;;;;;;;16.30;54.10;98582.72;10388256;28;20228;-66
2023/10/30 09:43:39;;;;;;;2.43;1.83;;;;;;;15.50;55.03;98659.25;10389737;28;20715;-66
2023/10/30 09:48:43;;;;;;;3.63;2.53;;;;;;;16.25;54.19;98613.97;10381378;28;20626;-66
2023/10/30 09:53:46;;;;;;;3.00;2.13;;;;;;;15.32;55.67;98697.22;10394741;28;20228;-66
2023/10/30 09:58:49;;;;;;;2.87;2.00;;;;;;;16.96;53.27;98569.16;10386948;28;20579;-66
2023/10/30 10:03:51;;;;;;;2.93;2.10;;;;;;;16.79;53.32;98629.47;10388400;28;20371;-66
2023/10/30 10:08:54;;;;;;;2.87;2.30;;;;;;;16.46;54.08;98638.53;10382932;28;20247;-66
2023/10/30 10:13:56;;;;;;;2.27;2.00;;;;;;;16.56;54.40;98608.16;10390017;28;20327;-66
2023/10/30 10:19:21;;;;;;;2.90;1.80;;;;;;;14.76;57.66;98660.06;10386432;28;20351;-67
2023/10/30 10:24:32;;;;;;;2.87;2.63;;;;;;;15.06;58.25;98561.22;10387785;28;20235;-66
2023/10/30 10:29:35;;;;;;;3.27;2.60;;;;;;;15.67;57.14;98515.53;10404808;28;20232;-67
2023/10/30 10:34:37;;;;;;;3.30;2.30;;;;;;;15.35;56.42;98610.47;10389522;28;20304;-67
2023/10/30 10:39:50;;;;;;;4.70;3.40;;;;;;;15.51;58.29;98425.53;10384912;28;20244;-67
2023/10/30 10:44:54;;;;;;;3.80;2.43;;;;;;;14.22;59.57;98551.84;10385584;28;20766;-67
2023/10/30 10:49:57;;;;;;;3.00;2.70;;;;;;;14.68;58.68;98543.84;10382605;28;20240;-67
2023/10/30 10:55:05;;;;;;;4.33;3.27;;;;;;;15.42;57.23;98492.53;10389642;28;20734;-67
2023/10/30 11:06:10;;;;;;;4.07;3.17;;;;;;;13.67;62.85;98411.44;10525086;27;20850;-66
2023/10/30 11:11:22;;;;;;;3.83;2.83;;;;;;;13.29;62.67;98476.44;10457060;28;20231;-66
2023/10/30 11:16:33;;;;;;;2.63;2.43;;;;;;;14.55;59.60;98445.34;10490691;28;20239;-66
2023/10/30 11:21:35;;;;;;;5.67;4.37;;;;;;;14.09;61.37;98396.09;10487992;28;20223;-67
2023/10/30 11:26:39;;;;;;;3.50;3.17;;;;;;;16.00;57.61;98333.06;10488276;28;20594;-66
2023/10/30 11:31:53;;;;;;;6.33;2.80;;;;;;;14.97;59.34;98379.53;10484196;28;20228;-66
2023/10/30 11:37:09;;;;;;;4.43;2.80;;;;;;;15.26;58.90;98358.63;10492528;28;20604;-66
2023/10/30 11:42:24;;;;;;;2.53;2.33;;;;;;;15.11;59.74;98340.38;10484835;28;20319;-66
2023/10/30 11:47:26;;;;;;;6.13;2.60;;;;;;;15.39;58.90;98344.78;10482916;28;20227;-67
2023/10/30 11:52:28;;;;;;;4.93;4.20;;;;;;;14.86;60.16;98354.31;10483559;28;20600;-67
2023/10/30 11:57:30;;;;;;;5.40;2.77;;;;;;;14.30;60.78;98375.78;10484197;28;20238;-67
2023/10/30 12:02:39;;;;;;;2.83;2.40;;;;;;;13.96;61.07;98437.53;10483624;28;20748;-66
2023/10/30 12:07:41;;;;;;;2.77;2.40;;;;;;;14.23;61.58;98378.63;10480831;28;20233;-66
2023/10/30 12:12:43;;;;;;;5.07;2.57;;;;;;;14.58;61.47;98310.28;10491494;28;20231;-68
2023/10/30 12:17:44;;;;;;;2.80;2.57;;;;;;;14.45;61.20;98329.47;10453988;28;20230;-66
2023/10/30 12:22:46;;;;;;;4.07;2.63;;;;;;;15.27;59.17;98279.44;10458927;28;20318;-67
2023/10/30 12:27:48;;;;;;;2.97;2.67;;;;;;;15.79;58.23;98240.34;10454923;28;20235;-66
2023/10/30 12:32:57;;;;;;;63.43;44.40;;;;;;;15.72;58.27;98253.22;10458882;28;20224;-66
2023/10/30 12:37:59;;;;;;;5.23;3.10;;;;;;;15.32;58.88;98279.50;10454147;28;20257;-68
2023/10/30 12:43:01;;;;;;;5.90;3.50;;;;;;;15.61;57.46;98312.44;10455380;28;20232;-66
2023/10/30 12:48:02;;;;;;;4.07;2.90;;;;;;;15.69;58.04;98254.56;10452509;28;20265;-67
2023/10/30 12:53:05;;;;;;;5.10;4.00;;;;;;;14.37;61.43;98277.69;10455798;28;20707;-67
2023/10/30 12:58:06;;;;;;;4.53;4.13;;;;;;;14.92;60.24;98232.16;10453313;28;20957;-66
2023/10/30 13:03:08;;;;;;;4.67;3.70;;;;;;;16.73;56.15;98173.22;10457798;28;21502;-66
2023/10/30 13:08:10;;;;;;;5.90;3.17;;;;;;;14.56;61.39;98234.31;10450002;28;20304;-67
2023/10/30 13:13:16;;;;;;;5.03;3.30;;;;;;;15.69;59.60;98157.50;10458430;28;20329;-66
2023/10/30 13:18:17;;;;;;;5.87;3.43;;;;;;;14.36;61.75;98245.66;10447423;28;20305;-67
2023/10/30 13:23:21;;;;;;;4.37;3.97;;;;;;;16.31;57.45;98141.72;10455079;28;20598;-67
2023/10/30 13:28:23;;;;;;;5.03;3.50;;;;;;;14.32;61.52;98264.13;10449248;28;20226;-67
2023/10/30 13:33:26;;;;;;;4.93;3.67;;;;;;;14.33;62.30;98189.63;10453837;28;20230;-67
2023/10/30 13:38:28;;;;;;;5.23;3.90;;;;;;;14.37;62.14;98182.69;10453149;28;20258;-66
2023/10/30 13:43:29;;;;;;;5.97;3.80;;;;;;;14.04;62.84;98185.16;10453675;28;20235;-66
2023/10/30 13:48:31;;;;;;;5.03;3.67;;;;;;;14.86;60.87;98146.97;10448871;28;20246;-67
2023/10/30 13:53:33;;;;;;;5.93;4.57;;;;;;;13.93;63.47;98137.66;10449867;28;20318;-67
2023/10/30 13:58:36;;;;;;;4.70;4.27;;;;;;;13.13;65.37;98163.75;10453221;28;20291;-66
2023/10/30 14:03:37;;;;;;;5.00;4.50;;;;;;;13.64;64.47;98092.06;10450126;28;20641;-67
2023/10/30 14:08:40;;;;;;;4.67;3.97;;;;;;;13.87;63.04;98105.56;10450661;28;20236;-67
2023/10/30 14:13:42;;;;;;;8.43;4.27;;;;;;;13.43;64.02;98125.88;10456379;28;20220;-67
2023/10/30 14:18:43;;;;;;;5.57;4.47;;;;;;;14.26;61.82;98087.56;10447107;28;20717;-67
2023/10/30 14:23:45;;;;;;;5.00;4.40;;;;;;;14.21;63.20;98041.78;10454711;28;20227;-66
2023/10/30 14:28:49;;;;;;;5.50;4.10;;;;;;;14.65;60.75;98111.72;10448228;28;20246;-68
2023/10/30 14:34:03;;;;;;;4.50;3.70;;;;;;;14.16;61.61;98141.25;10315110;28;21447;-35
2023/10/30 14:39:05;;;;;;;5.13;4.47;;;;;;;15.37;59.58;98052.34;10280380;28;20471;-35
2023/10/30 14:44:07;;;;;;;5.93;4.87;;;;;;;14.82;59.80;98181.66;10296549;28;20230;-43
2023/10/30 14:49:09;;;;;;;3.93;3.53;;;;;;;14.20;61.45;98185.41;10289988;28;20632;-43
2023/10/30 14:54:11;;;;;;;3.60;3.30;;;;;;;13.60;62.83;98214.56;10291428;28;20300;-42
2023/10/30 15:05:10;;;;;;;5.70;4.23;;;;;;;11.99;68.55;98106.16;10447392;27;20874;-66
2023/10/30 15:10:14;;;;;;;5.20;3.90;;;;;;;13.01;65.22;98067.13;10452044;28;20231;-66
2023/10/30 15:15:16;;;;;;;6.67;4.23;;;;;;;12.61;66.33;98096.72;10474581;28;20203;-66
2023/10/30 15:20:20;;;;;;;6.77;4.47;;;;;;;12.54;66.38;98107.59;10473952;28;20238;-65
2023/10/30 15:25:22;;;;;;;6.70;4.00;;;;;;;14.59;60.61;98118.94;10476650;28;20215;-66
2023/10/30 15:30:23;;;;;;;5.93;5.10;;;;;;;15.85;57.27;98110.66;10476976;28;20714;-67
2023/10/30 15:35:25;;;;;;;8.80;5.57;;;;;;;14.23;60.00;98238.72;10476685;28;20211;-68
2023/10/30 15:40:27;;;;;;;7.70;5.87;;;;;;;15.77;57.34;98150.78;10459883;28;20231;-67
2023/10/30 15:45:30;;;;;;;6.13;4.80;;;;;;;15.21;59.34;98167.28;10479075;28;20204;-66
2023/10/30 15:50:32;;;;;;;6.57;4.30;;;;;;;14.35;60.66;98209.03;10465059;28;20548;-67
2023/10/30 15:55:34;;;;;;;6.37;4.40;;;;;;;12.97;64.00;98261.16;10482565;28;21033;-69
2023/10/30 16:00:43;;;;;;;7.07;5.13;;;;;;;14.16;61.99;98163.56;10467050;28;20247;-69
2023/10/30 16:05:44;;;;;;;5.33;4.27;;;;;;;13.56;63.31;98185.72;10474416;28;20780;-67
2023/10/30 16:11:06;;;;;;;5.47;4.97;;;;;;;12.21;66.01;98269.13;10468209;28;20246;-72
2023/10/30 16:16:11;;;;;;;6.80;4.73;;;;;;;12.88;65.60;98154.13;10441248;28;20381;-68
2023/10/30 16:21:13;;;;;;;8.77;4.70;;;;;;;13.01;65.20;98125.38;10441806;28;20319;-66
2023/10/30 16:26:17;;;;;;;6.60;5.43;;;;;;;13.42;63.45;98153.00;10443025;28;20228;-69
2023/10/30 16:31:19;;;;;;;6.80;4.57;;;;;;;13.20;63.44;98211.94;10449738;28;20310;-68
2023/10/30 16:36:21;;;;;;;8.57;4.87;;;;;;;13.80;62.55;98144.19;10483172;28;20249;-67
2023/10/30 16:41:22;;;;;;;5.93;4.40;;;;;;;13.82;61.70;98181.59;10453657;28;20231;-66
2023/10/30 16:46:24;;;;;;;5.63;4.80;;;;;;;14.99;59.80;98086.50;10452766;28;20232;-69
2023/10/30 16:51:26;;;;;;;6.97;5.47;;;;;;;16.44;55.83;98071.84;10448536;28;20254;-67
2023/10/30 16:56:30;;;;;;;8.10;5.97;;;;;;;14.26;60.54;98207.84;10456254;28;20247;-67
2023/10/30 17:01:32;;;;;;;5.50;4.40;;;;;;;14.81;59.77;98152.25;10447530;28;20232;-68
2023/10/30 17:06:34;;;;;;;6.10;4.73;;;;;;;14.17;60.06;98237.84;10462479;28;20236;-67
2023/10/30 17:11:36;;;;;;;7.17;4.97;;;;;;;15.08;58.83;98150.44;10450327;28;20254;-69
2023/10/30 17:16:37;;;;;;;9.90;5.57;;;;;;;14.29;59.92;98239.59;10445934;28;20714;-68
2023/10/30 17:21:39;;;;;;;7.87;5.40;;;;;;;14.84;58.79;98214.53;10442853;28;20270;-67
2023/10/30 17:26:41;;;;;;;13.20;8.03;;;;;;;14.97;58.39;98202.56;10447606;28;20232;-67
2023/10/30 17:31:43;;;;;;;11.23;7.50;;;;;;;14.64;59.42;98219.63;10449413;28;20732;-66
2023/10/30 17:36:45;;;;;;;10.73;6.47;;;;;;;14.77;59.07;98216.59;10449712;28;20280;-66
2023/10/30 17:41:46;;;;;;;9.57;7.23;;;;;;;15.11;58.26;98200.31;10449697;28;20652;-69
2023/10/30 17:46:48;;;;;;;6.77;5.97;;;;;;;14.59;59.47;98225.75;10446441;28;20227;-68
2023/10/30 17:51:50;;;;;;;9.17;6.23;;;;;;;13.84;61.94;98201.78;10447214;28;20235;-68
2023/10/30 17:56:52;;;;;;;8.53;6.30;;;;;;;12.54;65.06;98276.63;10449296;28;20230;-67
2023/10/30 18:01:55;;;;;;;7.83;6.30;;;;;;;13.25;62.94;98228.94;10446728;28;20257;-69
2023/10/30 18:06:57;;;;;;;8.10;6.10;;;;;;;12.31;65.48;98261.31;10457183;28;20245;-70
2023/10/30 18:11:59;;;;;;;9.10;6.37;;;;;;;13.01;63.24;98222.03;10439866;28;20270;-69
2023/10/30 18:17:00;;;;;;;8.10;6.27;;;;;;;12.68;64.99;98162.59;10443447;28;20252;-69
2023/10/30 18:22:02;;;;;;;8.17;6.33;;;;;;;14.13;61.71;98087.94;10441397;28;20261;-70
2023/10/30 18:27:04;;;;;;;7.63;6.40;;;;;;;13.01;63.23;98216.66;10442156;28;20231;-69
2023/10/30 18:32:06;;;;;;;7.93;5.90;;;;;;;13.20;63.13;98161.72;10441571;28;20256;-69
2023/10/30 18:37:07;;;;;;;10.10;6.03;;;;;;;13.00;63.07;98204.31;10437777;28;20790;-65
2023/10/30 18:42:10;;;;;;;5.93;5.23;;;;;;;12.98;63.56;98188.44;10444620;28;20238;-66
2023/10/30 18:47:12;;;;;;;5.40;4.30;;;;;;;12.34;65.23;98191.13;10441228;28;20224;-66
2023/10/30 18:52:14;;;;;;;5.77;3.70;;;;;;;12.61;64.02;98190.63;10434542;28;20817;-68
2023/10/30 18:57:15;;;;;;;5.23;4.20;;;;;;;12.28;64.28;98230.44;10444132;28;20238;-68
2023/10/30 19:02:17;;;;;;;4.10;3.70;;;;;;;12.32;64.69;98177.94;10433357;28;20285;-66
2023/10/30 19:07:19;;;;;;;3.80;3.40;;;;;;;12.84;64.44;98099.31;10436002;28;20236;-65
2023/10/30 19:12:21;;;;;;;3.70;3.37;;;;;;;12.25;65.15;98179.94;10444090;28;20227;-67
2023/10/30 19:17:22;;;;;;;3.93;3.53;;;;;;;12.98;62.97;98147.34;10443743;28;20223;-68
2023/10/30 19:22:25;;;;;;;3.97;3.57;;;;;;;12.13;65.59;98117.44;10460722;28;20718;-69
2023/10/30 19:27:27;;;;;;;3.30;3.07;;;;;;;12.29;65.46;98097.94;10473939;28;20307;-66
2023/10/30 19:32:28;;;;;;;5.00;3.63;;;;;;;11.78;65.70;98204.84;10466876;28;20290;-69
2023/10/30 19:37:33;;;;;;;3.93;3.53;;;;;;;13.22;62.67;98115.81;10434840;28;23318;-65
2023/10/30 19:42:34;;;;;;;4.13;3.60;;;;;;;12.93;64.21;98119.34;10435710;28;20901;-66
2023/10/30 19:47:37;;;;;;;6.63;3.90;;;;;;;12.90;62.82;98191.50;10443636;28;20223;-66
2023/10/30 19:52:39;;;;;;;6.90;4.20;;;;;;;13.45;61.94;98179.38;10450944;28;20262;-66
2023/10/30 19:57:42;;;;;;;5.27;4.70;;;;;;;13.77;61.52;98154.63;10444351;28;20260;-66
2023/10/30 20:02:44;;;;;;;5.90;4.80;;;;;;;13.46;61.93;98197.09;10443060;28;20722;-66
2023/10/30 20:07:46;;;;;;;7.23;4.90;;;;;;;13.35;61.64;98206.06;10446108;28;20798;-69
2023/10/30 20:12:47;;;;;;;5.43;4.77;;;;;;;14.00;60.90;98124.03;10449455;28;20230;-66
2023/10/30 20:17:49;;;;;;;7.77;4.97;;;;;;;13.10;63.47;98140.84;10441647;28;20237;-66
2023/10/30 20:22:51;;;;;;;6.67;5.50;;;;;;;12.93;63.52;98162.28;10449936;28;20227;-65
2023/10/30 20:27:54;;;;;;;6.30;5.10;;;;;;;12.70;64.41;98178.47;10436810;28;20238;-70
2023/10/30 20:32:56;;;;;;;5.83;5.23;;;;;;;12.39;65.19;98175.13;10437310;22;20244;-35
2023/10/30 20:37:58;;;;;;;6.50;5.20;;;;;;;12.90;63.88;98135.09;10376239;28;20607;-34
2023/10/30 20:42:59;;;;;;;5.13;4.63;;;;;;;12.94;63.65;98138.97;10393396;23;20616;-66
2023/10/30 20:48:01;;;;;;;4.97;4.43;;;;;;;12.43;64.21;98207.66;10396660;28;20267;-69
2023/10/30 20:53:06;;;;;;;5.53;4.43;;;;;;;13.63;61.46;98093.16;10434593;28;20232;-68
2023/10/30 20:58:08;;;;;;;5.97;4.40;;;;;;;12.63;63.34;98224.22;10429580;28;20290;-69
2023/10/30 21:03:10;;;;;;;4.90;4.00;;;;;;;13.04;62.85;98160.63;10441678;28;20228;-69
2023/10/30 21:08:12;;;;;;;5.30;3.80;;;;;;;12.54;63.09;98212.22;10433604;28;20239;-68
2023/10/30 21:13:16;;;;;;;4.70;3.23;;;;;;;11.74;65.76;98241.22;10442098;28;20236;-70
2023/10/30 21:18:18;;;;;;;4.67;3.90;;;;;;;11.88;64.88;98252.53;10413524;28;20236;-68
2023/10/30 21:23:20;;;;;;;3.60;3.30;;;;;;;11.91;65.33;98186.91;10442399;28;20234;-67
2023/10/30 21:28:21;;;;;;;4.00;3.70;;;;;;;12.16;64.56;98157.19;10424590;28;20243;-66
2023/10/30 21:33:23;;;;;;;3.67;3.37;;;;;;;12.29;63.79;98210.59;10444815;28;20604;-66
2023/10/30 21:38:25;;;;;;;3.90;3.40;;;;;;;11.64;65.39;98211.44;10430901;28;20694;-66
2023/10/30 21:43:26;;;;;;;3.47;3.17;;;;;;;11.49;65.43;98259.25;10441136;28;20287;-66
2023/10/30 21:48:30;;;;;;;3.37;2.80;;;;;;;11.93;64.00;98214.28;10425555;28;20259;-66
2023/10/30 21:53:31;;;;;;;3.60;3.00;;;;;;;11.77;65.33;98167.56;10437984;28;20243;-66
2023/10/30 21:58:33;;;;;;;2.90;2.70;;;;;;;11.74;64.80;98189.47;10424249;28;20631;-65
2023/10/30 22:03:36;;;;;;;2.90;2.70;;;;;;;12.55;62.31;98171.75;10440956;28;20239;-68
2023/10/30 22:08:38;;;;;;;3.00;2.80;;;;;;;12.20;62.23;98273.69;10429849;28;20236;-67
2023/10/30 22:13:40;;;;;;;3.20;2.90;;;;;;;13.04;61.92;98167.84;10434235;28;20224;-67
2023/10/30 22:18:42;;;;;;;4.57;3.50;;;;;;;11.61;64.30;98333.28;10425611;28;20614;-67
2023/10/30 22:23:44;;;;;;;2.90;2.70;;;;;;;12.42;62.25;98283.81;10441725;28;20227;-68
2023/10/30 22:28:45;;;;;;;3.80;3.20;;;;;;;12.95;61.52;98242.59;10435373;28;20254;-67
2023/10/30 22:33:48;;;;;;;3.23;2.93;;;;;;;12.71;61.02;98352.69;10436849;28;20241;-67
2023/10/30 22:38:51;;;;;;;3.10;2.80;;;;;;;12.91;61.06;98338.91;10429720;28;20235;-67
2023/10/30 22:43:53;;;;;;;2.93;2.50;;;;;;;12.06;61.77;98364.22;10436573;28;20301;-67
2023/10/30 22:48:55;;;;;;;2.30;1.63;;;;;;;11.20;62.25;98387.53;10427666;28;20328;-67
2023/10/30 22:53:57;;;;;;;2.30;1.80;;;;;;;11.58;61.09;98360.50;10437787;28;20263;-67
2023/10/30 22:58:58;;;;;;;1.70;1.60;;;;;;;11.21;61.47;98371.25;10430435;28;20224;-66
2023/10/30 23:04:00;;;;;;;2.20;2.10;;;;;;;11.22;61.10;98410.38;10437161;28;20250;-67
2023/10/30 23:09:03;;;;;;;2.20;2.00;;;;;;;10.96;62.45;98448.91;10422364;28;20250;-66
2023/10/30 23:14:04;;;;;;;2.23;2.07;;;;;;;12.82;59.20;98294.69;10437135;28;20255;-67
2023/10/30 23:19:06;;;;;;;4.07;3.20;;;;;;;12.23;60.88;98376.97;10421407;28;20318;-66
2023/10/30 23:24:08;;;;;;;3.33;3.13;;;;;;;12.23;59.93;98455.56;10438430;28;20855;-67
2023/10/30 23:29:11;;;;;;;3.53;3.23;;;;;;;12.93;58.98;98392.38;10434161;28;20267;-67
2023/10/30 23:34:12;;;;;;;2.30;2.20;;;;;;;11.35;61.74;98464.84;10438535;28;20718;-66
2023/10/30 23:39:14;;;;;;;2.07;1.97;;;;;;;11.34;60.53;98488.13;10427426;28;20232;-67
2023/10/30 23:44:16;;;;;;;2.00;1.87;;;;;;;11.78;59.77;98405.03;10445323;28;20235;-67